Time;durP1;ratioP1;P1;durP2;ratioP2;P2;SDS_P1;SDS_P2;PMS_P1;PMS_P2;Temp;Humidity;BMP_temperature;BMP_pressure;BME280_temperature;BME280_humidity;BME280_pressure;Samples;Min_cycle;Max_cycle;Signal;HPM_P1;HPM_P2
2023/06/22 00:01:12;;;;;;;11.90;10.70;;;;;;;;;;5078250;28;20478;-81
2023/06/22 00:03:39;;;;;;;15.70;12.53;;;;;;;;;;5079487;28;20952;-81
2023/06/22 00:06:06;;;;;;;13.23;11.83;;;;;;;;;;5079102;28;20461;-81
2023/06/22 00:08:32;;;;;;;13.17;11.83;;;;;;;;;;5078413;28;20457;-82
2023/06/22 00:10:58;;;;;;;11.83;10.70;;;;;;;;;;5079708;28;20467;-82
2023/06/22 00:13:25;;;;;;;13.53;11.90;;;;;;;;;;5069743;28;20450;-82
2023/06/22 00:15:51;;;;;;;13.43;12.00;;;;;;;;;;5078860;28;20462;-81
2023/06/22 00:18:20;;;;;;;12.80;11.27;;;;;;;;;;5066788;28;20474;-81
2023/06/22 00:20:46;;;;;;;11.47;10.37;;;;;;;;;;5087128;28;20486;-79
2023/06/22 00:23:15;;;;;;;12.17;10.97;;;;;;;;;;5080209;28;20842;-81
2023/06/22 00:25:43;;;;;;;12.83;11.60;;;;;;;;;;5075901;28;20534;-82
2023/06/22 00:28:10;;;;;;;10.03;9.13;;;;;;;;;;5075307;28;20487;-82
2023/06/22 00:30:36;;;;;;;13.50;11.37;;;;;;;;;;5077742;28;20442;-81
2023/06/22 00:33:03;;;;;;;12.67;11.37;;;;;;;;;;5077962;28;20451;-81
2023/06/22 00:35:30;;;;;;;12.83;11.43;;;;;;;;;;5071124;28;20446;-81
2023/06/22 00:38:00;;;;;;;12.63;11.43;;;;;;;;;;5079423;28;20455;-81
2023/06/22 00:40:26;;;;;;;12.17;10.97;;;;;;;;;;5082603;28;20450;-82
2023/06/22 00:42:53;;;;;;;11.03;10.00;;;;;;;;;;5085301;28;20443;-81
2023/06/22 00:45:19;;;;;;;12.83;11.30;;;;;;;;;;5080523;28;20459;-79
2023/06/22 00:47:46;;;;;;;12.33;11.10;;;;;;;;;;5074610;28;21000;-79
2023/06/22 00:50:18;;;;;;;11.03;9.70;;;;;;;;;;5068087;28;20443;-79
2023/06/22 00:52:46;;;;;;;11.63;10.43;;;;;;;;;;5074389;28;20546;-79
2023/06/22 00:55:12;;;;;;;15.27;11.93;;;;;;;;;;5077206;28;20520;-81
2023/06/22 00:57:39;;;;;;;11.97;10.77;;;;;;;;;;5072156;28;20470;-81
2023/06/22 01:00:20;;;;;;;15.10;12.80;;;;;;;;;;5080665;28;20466;-82
2023/06/22 01:02:47;;;;;;;13.97;12.60;;;;;;;;;;5078543;28;21008;-81
2023/06/22 01:05:14;;;;;;;13.10;11.70;;;;;;;;;;5073866;28;20451;-81
2023/06/22 01:07:43;;;;;;;19.33;12.33;;;;;;;;;;5055054;28;20578;-81
2023/06/22 01:10:15;;;;;;;12.83;11.50;;;;;;;;;;5077000;28;20457;-81
2023/06/22 01:12:44;;;;;;;14.87;12.50;;;;;;;;;;5078606;28;20482;-81
2023/06/22 01:15:13;;;;;;;12.37;11.07;;;;;;;;;;5076848;28;20462;-79
2023/06/22 01:17:41;;;;;;;13.77;12.37;;;;;;;;;;5082078;28;20954;-80
2023/06/22 01:20:09;;;;;;;13.50;11.50;;;;;;;;;;5080436;28;20485;-80
2023/06/22 01:22:44;;;;;;;14.27;11.80;;;;;;;;;;5078488;28;20473;-80
2023/06/22 01:25:14;;;;;;;12.37;11.17;;;;;;;;;;5082317;28;20424;-80
2023/06/22 01:27:46;;;;;;;14.27;11.80;;;;;;;;;;5088639;28;20473;-79
2023/06/22 01:30:15;;;;;;;12.93;11.63;;;;;;;;;;5086126;28;20447;-80
2023/06/22 01:32:41;;;;;;;12.43;11.07;;;;;;;;;;5076245;28;20479;-79
2023/06/22 01:35:09;;;;;;;12.30;11.03;;;;;;;;;;5082695;28;20453;-80
2023/06/22 01:37:36;;;;;;;14.03;12.70;;;;;;;;;;5081815;28;20493;-80
2023/06/22 01:40:04;;;;;;;12.70;10.90;;;;;;;;;;5078554;28;20458;-80
2023/06/22 01:42:31;;;;;;;11.97;10.40;;;;;;;;;;5083560;28;20470;-79
2023/06/22 01:44:57;;;;;;;15.03;13.50;;;;;;;;;;5080142;28;20447;-80
2023/06/22 01:47:25;;;;;;;16.00;12.40;;;;;;;;;;5068928;28;20470;-79
2023/06/22 01:49:52;;;;;;;16.93;12.43;;;;;;;;;;5087853;28;20462;-80
2023/06/22 01:52:20;;;;;;;16.03;11.40;;;;;;;;;;5081637;28;20481;-79
2023/06/22 01:54:48;;;;;;;13.40;11.67;;;;;;;;;;5085741;28;20486;-79
2023/06/22 01:57:14;;;;;;;11.63;10.00;;;;;;;;;;5075728;28;20482;-80
2023/06/22 01:59:45;;;;;;;13.80;9.60;;;;;;;;;;5081882;28;20451;-79
2023/06/22 02:02:14;;;;;;;15.70;10.17;;;;;;;;;;5079937;28;20493;-80
2023/06/22 02:04:45;;;;;;;17.70;12.07;;;;;;;;;;5081184;28;20417;-80
2023/06/22 02:07:15;;;;;;;17.23;12.83;;;;;;;;;;5079478;28;20529;-80
2023/06/22 02:09:43;;;;;;;16.97;12.50;;;;;;;;;;5087100;28;20446;-79
2023/06/22 02:12:11;;;;;;;15.20;13.60;;;;;;;;;;5078655;28;20474;-81
2023/06/22 02:14:37;;;;;;;22.00;12.40;;;;;;;;;;5079651;28;20443;-82
2023/06/22 02:17:04;;;;;;;16.60;12.47;;;;;;;;;;5073225;28;20470;-79
2023/06/22 02:19:33;;;;;;;15.20;11.60;;;;;;;;;;5061500;28;20525;-79
2023/06/22 02:22:00;;;;;;;15.97;12.27;;;;;;;;;;5077214;28;20497;-82
2023/06/22 02:24:27;;;;;;;15.10;12.50;;;;;;;;;;5086570;28;20450;-81
2023/06/22 02:26:58;;;;;;;14.20;12.43;;;;;;;;;;5084117;28;20864;-81
2023/06/22 02:29:24;;;;;;;13.60;11.90;;;;;;;;;;5078872;28;20445;-81
2023/06/22 02:31:51;;;;;;;16.63;10.70;;;;;;;;;;5080410;28;20474;-81
2023/06/22 02:34:19;;;;;;;13.70;12.13;;;;;;;;;;5089548;28;20904;-81
2023/06/22 02:36:50;;;;;;;14.20;12.20;;;;;;;;;;5074678;28;20979;-81
2023/06/22 02:39:18;;;;;;;13.73;12.20;;;;;;;;;;5073434;28;20471;-81
2023/06/22 02:41:45;;;;;;;17.67;13.90;;;;;;;;;;5087395;28;20459;-81
2023/06/22 02:44:11;;;;;;;13.50;12.00;;;;;;;;;;5080172;28;20442;-81
2023/06/22 02:46:37;;;;;;;16.10;14.10;;;;;;;;;;5076319;28;20447;-81
2023/06/22 02:49:04;;;;;;;15.53;13.20;;;;;;;;;;5077092;28;20489;-81
2023/06/22 02:51:31;;;;;;;24.07;13.70;;;;;;;;;;5074273;28;20489;-80
2023/06/22 02:53:58;;;;;;;14.67;13.27;;;;;;;;;;5075178;28;20463;-79
2023/06/22 02:56:25;;;;;;;18.97;12.90;;;;;;;;;;5086724;28;20461;-81
2023/06/22 02:58:52;;;;;;;18.00;13.50;;;;;;;;;;5081078;28;20463;-81
2023/06/22 03:01:23;;;;;;;14.73;12.70;;;;;;;;;;5080195;28;21087;-81
2023/06/22 03:03:49;;;;;;;15.90;12.73;;;;;;;;;;5083234;28;20457;-81
2023/06/22 03:06:15;;;;;;;15.17;12.37;;;;;;;;;;5082644;28;20470;-79
2023/06/22 03:08:42;;;;;;;17.63;13.20;;;;;;;;;;5073046;28;20484;-79
2023/06/22 03:11:08;;;;;;;14.80;13.30;;;;;;;;;;5083438;28;20474;-79
2023/06/22 03:13:36;;;;;;;16.03;14.40;;;;;;;;;;5079212;28;20468;-79
2023/06/22 03:16:02;;;;;;;19.40;17.30;;;;;;;;;;5078648;28;20470;-81
2023/06/22 03:18:28;;;;;;;16.33;12.80;;;;;;;;;;5073418;28;20981;-81
2023/06/22 03:20:55;;;;;;;18.23;14.07;;;;;;;;;;5072171;28;20462;-81
2023/06/22 03:23:22;;;;;;;19.97;15.40;;;;;;;;;;5078164;28;20462;-81
2023/06/22 03:25:48;;;;;;;18.37;14.20;;;;;;;;;;5081528;28;20457;-81
2023/06/22 03:28:14;;;;;;;24.50;14.00;;;;;;;;;;5086594;28;20493;-80
2023/06/22 03:30:42;;;;;;;19.40;15.03;;;;;;;;;;5074371;28;20447;-81
2023/06/22 03:33:08;;;;;;;23.67;15.33;;;;;;;;;;5080543;28;20432;-81
2023/06/22 03:35:35;;;;;;;19.27;13.50;;;;;;;;;;5083919;28;20442;-79
2023/06/22 03:38:01;;;;;;;16.10;13.70;;;;;;;;;;5080983;28;20438;-80
2023/06/22 03:40:28;;;;;;;19.87;15.83;;;;;;;;;;5079280;28;20454;-82
2023/06/22 03:42:54;;;;;;;16.90;15.03;;;;;;;;;;5079235;28;20429;-81
2023/06/22 03:45:20;;;;;;;25.83;18.40;;;;;;;;;;5076170;28;20438;-82
2023/06/22 03:47:48;;;;;;;17.83;15.53;;;;;;;;;;5089199;28;20478;-81
2023/06/22 03:50:15;;;;;;;20.40;16.97;;;;;;;;;;5072919;28;20439;-81
2023/06/22 03:52:42;;;;;;;21.37;18.30;;;;;;;;;;5081881;28;20477;-81
2023/06/22 03:55:08;;;;;;;35.40;18.00;;;;;;;;;;5077387;28;20421;-80
2023/06/22 03:57:35;;;;;;;23.60;16.53;;;;;;;;;;5082652;28;20466;-81
2023/06/22 04:00:02;;;;;;;22.07;16.33;;;;;;;;;;5076115;28;20446;-81
2023/06/22 04:02:28;;;;;;;26.30;16.97;;;;;;;;;;5081051;28;20963;-81
2023/06/22 04:04:56;;;;;;;22.27;17.80;;;;;;;;;;5071118;28;20442;-81
2023/06/22 04:07:23;;;;;;;22.63;18.00;;;;;;;;;;5074591;28;20478;-81
2023/06/22 04:09:49;;;;;;;21.20;16.73;;;;;;;;;;5080853;28;20451;-81
2023/06/22 04:12:15;;;;;;;23.30;18.70;;;;;;;;;;5092169;28;20478;-81
2023/06/22 04:14:42;;;;;;;29.77;18.07;;;;;;;;;;5088704;28;20532;-81
2023/06/22 04:17:09;;;;;;;22.43;20.03;;;;;;;;;;5079234;28;20479;-81
2023/06/22 04:19:35;;;;;;;22.93;18.27;;;;;;;;;;5073049;28;20443;-81
2023/06/22 04:22:03;;;;;;;20.27;18.17;;;;;;;;;;5079064;28;20440;-81
2023/06/22 04:24:29;;;;;;;22.87;19.17;;;;;;;;;;5081406;28;20500;-81
2023/06/22 04:26:56;;;;;;;22.10;18.40;;;;;;;;;;5078585;28;20467;-81
2023/06/22 04:29:30;;;;;;;23.30;19.20;;;;;;;;;;5079109;28;20498;-81
2023/06/22 04:31:58;;;;;;;21.47;18.40;;;;;;;;;;5073883;28;20498;-81
2023/06/22 04:34:26;;;;;;;29.10;19.23;;;;;;;;;;5075813;28;20458;-81
2023/06/22 04:36:52;;;;;;;20.33;17.30;;;;;;;;;;5081086;28;20558;-81
2023/06/22 04:39:20;;;;;;;23.40;19.17;;;;;;;;;;5079561;28;20461;-81
2023/06/22 04:41:48;;;;;;;25.27;19.10;;;;;;;;;;5085760;28;21005;-81
2023/06/22 04:44:23;;;;;;;23.90;19.70;;;;;;;;;;5083610;28;20814;-81
2023/06/22 04:46:53;;;;;;;25.43;19.03;;;;;;;;;;5072713;28;20464;-81
2023/06/22 04:49:20;;;;;;;29.03;21.27;;;;;;;;;;5074385;28;20479;-81
2023/06/22 04:51:46;;;;;;;24.53;19.10;;;;;;;;;;5077697;28;20478;-81
2023/06/22 04:54:13;;;;;;;27.03;20.90;;;;;;;;;;5083761;28;20429;-81
2023/06/22 04:56:41;;;;;;;24.20;19.13;;;;;;;;;;5078994;28;21036;-81
2023/06/22 04:59:07;;;;;;;28.10;20.30;;;;;;;;;;5076951;28;20501;-81
2023/06/22 05:01:34;;;;;;;23.37;17.70;;;;;;;;;;5083819;28;20470;-81
2023/06/22 05:04:02;;;;;;;35.47;18.37;;;;;;;;;;5080781;28;20445;-81
2023/06/22 05:06:28;;;;;;;20.27;15.80;;;;;;;;;;5080535;28;20474;-81
2023/06/22 05:08:57;;;;;;;21.17;17.57;;;;;;;;;;5077150;28;20478;-81
2023/06/22 05:11:24;;;;;;;18.50;16.50;;;;;;;;;;5085041;28;20520;-81
2023/06/22 05:13:51;;;;;;;19.67;16.00;;;;;;;;;;5074781;28;20459;-81
2023/06/22 05:16:23;;;;;;;18.77;16.50;;;;;;;;;;5081664;28;20475;-80
2023/06/22 05:18:50;;;;;;;19.23;16.97;;;;;;;;;;5080574;28;20486;-80
2023/06/22 05:21:16;;;;;;;18.60;16.60;;;;;;;;;;5081472;28;20463;-81
2023/06/22 05:23:42;;;;;;;20.53;17.13;;;;;;;;;;5082856;28;20462;-81
2023/06/22 05:26:10;;;;;;;17.13;14.17;;;;;;;;;;5085829;28;20473;-81
2023/06/22 05:28:36;;;;;;;17.67;15.13;;;;;;;;;;5081087;28;20481;-81
2023/06/22 05:31:04;;;;;;;15.27;13.63;;;;;;;;;;5070957;28;20463;-81
2023/06/22 05:33:30;;;;;;;18.37;15.90;;;;;;;;;;5080182;28;20527;-82
2023/06/22 05:35:57;;;;;;;16.30;14.27;;;;;;;;;;5076590;28;20475;-82
2023/06/22 05:38:24;;;;;;;18.50;15.63;;;;;;;;;;5079945;28;20481;-82
2023/06/22 05:40:51;;;;;;;19.10;15.27;;;;;;;;;;5080591;28;20486;-82
2023/06/22 05:43:17;;;;;;;18.20;14.90;;;;;;;;;;5082469;28;20447;-82
2023/06/22 05:45:43;;;;;;;19.40;15.40;;;;;;;;;;5077917;28;20786;-82
2023/06/22 05:48:11;;;;;;;18.67;14.27;;;;;;;;;;5093599;28;20462;-82
2023/06/22 05:50:37;;;;;;;16.90;15.17;;;;;;;;;;5089746;28;20462;-81
2023/06/22 05:53:04;;;;;;;17.97;14.67;;;;;;;;;;5079188;28;20443;-81
2023/06/22 05:55:30;;;;;;;19.00;14.00;;;;;;;;;;5079534;28;20435;-82
2023/06/22 05:57:57;;;;;;;15.80;14.07;;;;;;;;;;5077664;28;20459;-81
2023/06/22 06:00:23;;;;;;;18.87;14.27;;;;;;;;;;5078799;28;20449;-80
2023/06/22 06:02:50;;;;;;;15.73;13.50;;;;;;;;;;5064340;28;20904;-80
2023/06/22 06:05:18;;;;;;;18.90;14.40;;;;;;;;;;5079756;28;20446;-82
2023/06/22 06:07:45;;;;;;;19.13;14.53;;;;;;;;;;5061654;28;20996;-80
2023/06/22 06:10:12;;;;;;;17.93;14.10;;;;;;;;;;5069324;28;20476;-81
2023/06/22 06:12:38;;;;;;;20.10;15.07;;;;;;;;;;5077031;28;20487;-81
2023/06/22 06:15:05;;;;;;;20.13;15.03;;;;;;;;;;5080872;28;20445;-81
2023/06/22 06:17:32;;;;;;;17.63;13.70;;;;;;;;;;5081113;28;20527;-80
2023/06/22 06:19:59;;;;;;;17.40;14.10;;;;;;;;;;5082273;28;20832;-81
2023/06/22 06:22:27;;;;;;;19.10;13.87;;;;;;;;;;5081489;28;20473;-79
2023/06/22 06:24:53;;;;;;;16.80;14.83;;;;;;;;;;5089027;28;20443;-81
2023/06/22 06:27:20;;;;;;;17.50;15.70;;;;;;;;;;5087660;28;20481;-80
2023/06/22 06:29:48;;;;;;;19.70;14.27;;;;;;;;;;5082005;28;20532;-79
2023/06/22 06:32:15;;;;;;;16.67;14.10;;;;;;;;;;5079574;28;20481;-80
2023/06/22 06:34:43;;;;;;;21.63;14.63;;;;;;;;;;5091235;28;20489;-80
2023/06/22 06:37:09;;;;;;;16.07;13.67;;;;;;;;;;5078376;28;20471;-81
2023/06/22 06:39:37;;;;;;;16.10;13.30;;;;;;;;;;5072255;28;20824;-80
2023/06/22 06:42:03;;;;;;;14.87;12.63;;;;;;;;;;5083447;28;20474;-80
2023/06/22 06:44:30;;;;;;;19.57;13.27;;;;;;;;;;5084815;28;20451;-81
2023/06/22 06:46:57;;;;;;;17.20;13.77;;;;;;;;;;5080066;28;20474;-80
2023/06/22 06:49:24;;;;;;;14.40;12.57;;;;;;;;;;5081942;28;20478;-80
2023/06/22 06:51:51;;;;;;;15.33;11.90;;;;;;;;;;5090801;28;20466;-81
2023/06/22 06:54:20;;;;;;;13.77;10.80;;;;;;;;;;5087441;28;20451;-80
2023/06/22 06:56:48;;;;;;;15.03;10.90;;;;;;;;;;5077921;28;20472;-81
2023/06/22 06:59:15;;;;;;;14.67;10.20;;;;;;;;;;5076579;28;20446;-81
2023/06/22 07:01:41;;;;;;;11.90;9.50;;;;;;;;;;5087274;28;20508;-80
2023/06/22 07:04:07;;;;;;;11.53;10.37;;;;;;;;;;5086064;28;20838;-81
2023/06/22 07:06:34;;;;;;;13.87;10.00;;;;;;;;;;5082603;28;20852;-81
2023/06/22 07:09:00;;;;;;;26.57;11.20;;;;;;;;;;5086353;28;20851;-79
2023/06/22 07:11:27;;;;;;;11.73;9.50;;;;;;;;;;5083179;28;20824;-81
2023/06/22 07:13:54;;;;;;;9.50;8.20;;;;;;;;;;5092479;28;20457;-80
2023/06/22 07:16:21;;;;;;;13.87;10.60;;;;;;;;;;5082998;28;20475;-81
2023/06/22 07:18:47;;;;;;;10.50;9.07;;;;;;;;;;5075324;28;20458;-81
2023/06/22 07:21:13;;;;;;;11.77;8.77;;;;;;;;;;5079044;28;20859;-81
2023/06/22 07:23:40;;;;;;;9.40;7.00;;;;;;;;;;5084577;28;20486;-81
2023/06/22 07:26:08;;;;;;;10.53;7.13;;;;;;;;;;5078322;28;20469;-81
2023/06/22 07:28:36;;;;;;;10.57;7.00;;;;;;;;;;5080666;28;20564;-81
2023/06/22 07:31:05;;;;;;;13.77;8.27;;;;;;;;;;5078333;28;20466;-80
2023/06/22 07:33:32;;;;;;;10.13;7.20;;;;;;;;;;5093690;28;20464;-81
2023/06/22 07:35:58;;;;;;;9.40;6.37;;;;;;;;;;5081032;28;20489;-80
2023/06/22 07:38:25;;;;;;;10.00;6.90;;;;;;;;;;5085089;28;20478;-80
2023/06/22 07:40:53;;;;;;;8.60;5.70;;;;;;;;;;5079600;28;20463;-81
2023/06/22 07:43:19;;;;;;;7.03;4.97;;;;;;;;;;5082920;28;20450;-80
2023/06/22 07:45:51;;;;;;;7.27;5.03;;;;;;;;;;5080618;28;20453;-80
2023/06/22 07:48:20;;;;;;;7.20;6.50;;;;;;;;;;5093447;28;20462;-80
2023/06/22 07:50:47;;;;;;;8.07;5.13;;;;;;;;;;5082270;28;20825;-81
2023/06/22 07:53:13;;;;;;;8.97;5.23;;;;;;;;;;5078837;28;20442;-81
2023/06/22 07:55:40;;;;;;;8.47;5.00;;;;;;;;;;5078561;28;20824;-81
2023/06/22 07:58:06;;;;;;;4.27;3.87;;;;;;;;;;5076402;28;20466;-80
2023/06/22 08:00:34;;;;;;;4.13;3.73;;;;;;;;;;5083535;28;20534;-81
2023/06/22 08:03:04;;;;;;;5.80;4.03;;;;;;;;;;5074572;28;20466;-81
2023/06/22 08:05:32;;;;;;;5.33;4.47;;;;;;;;;;5082169;28;20438;-81
2023/06/22 08:07:59;;;;;;;6.90;3.93;;;;;;;;;;5079399;28;20867;-81
2023/06/22 08:10:25;;;;;;;7.40;5.37;;;;;;;;;;5086167;28;20481;-80
2023/06/22 08:12:52;;;;;;;7.63;4.33;;;;;;;;;;5083162;28;20959;-81
2023/06/22 08:15:19;;;;;;;6.03;5.00;;;;;;;;;;5079733;28;20493;-81
2023/06/22 08:17:45;;;;;;;6.50;4.90;;;;;;;;;;5076012;28;20479;-80
2023/06/22 08:20:12;;;;;;;4.90;4.50;;;;;;;;;;5072161;28;20964;-80
2023/06/22 08:22:40;;;;;;;4.83;4.30;;;;;;;;;;5066102;28;20529;-81
2023/06/22 08:25:07;;;;;;;6.67;4.40;;;;;;;;;;5081605;28;20439;-80
2023/06/22 08:27:34;;;;;;;6.83;4.37;;;;;;;;;;5089034;28;20995;-81
2023/06/22 08:30:00;;;;;;;6.10;4.03;;;;;;;;;;5073858;28;20498;-81
2023/06/22 08:32:28;;;;;;;4.73;4.10;;;;;;;;;;5086060;28;20471;-81
2023/06/22 08:34:54;;;;;;;6.57;4.63;;;;;;;;;;5078074;28;20937;-80
2023/06/22 08:37:24;;;;;;;6.60;4.97;;;;;;;;;;5082077;28;20478;-80
2023/06/22 08:39:52;;;;;;;6.17;4.00;;;;;;;;;;5081706;28;20467;-80
2023/06/22 08:42:18;;;;;;;4.80;4.40;;;;;;;;;;5094115;28;21008;-80
2023/06/22 08:44:45;;;;;;;9.07;5.30;;;;;;;;;;5087245;28;20446;-81
2023/06/22 08:47:11;;;;;;;4.80;4.30;;;;;;;;;;5098750;28;20481;-80
2023/06/22 08:49:37;;;;;;;7.43;5.30;;;;;;;;;;5067318;28;20487;-80
2023/06/22 08:52:04;;;;;;;6.03;5.23;;;;;;;;;;5084013;28;21018;-81
2023/06/22 08:54:34;;;;;;;6.50;5.63;;;;;;;;;;5085759;28;20474;-81
2023/06/22 08:57:03;;;;;;;7.13;5.27;;;;;;;;;;5082359;28;20494;-82
2023/06/22 08:59:29;;;;;;;7.00;4.60;;;;;;;;;;5084946;28;20442;-80
2023/06/22 09:01:56;;;;;;;5.53;4.30;;;;;;;;;;5080837;28;20524;-80
2023/06/22 09:04:22;;;;;;;5.23;4.67;;;;;;;;;;5093970;28;20460;-81
2023/06/22 09:06:52;;;;;;;8.60;5.40;;;;;;;;;;5070520;28;20880;-81
2023/06/22 09:09:18;;;;;;;6.67;5.73;;;;;;;;;;5092202;28;20465;-80
2023/06/22 09:11:45;;;;;;;5.67;4.70;;;;;;;;;;5092788;28;20469;-81
2023/06/22 09:14:13;;;;;;;6.10;5.50;;;;;;;;;;5085178;28;20450;-80
2023/06/22 09:16:40;;;;;;;6.83;4.40;;;;;;;;;;5083449;28;20517;-81
2023/06/22 09:19:06;;;;;;;6.30;4.90;;;;;;;;;;5078413;28;20470;-81
2023/06/22 09:21:33;;;;;;;6.63;5.33;;;;;;;;;;5093301;28;20470;-81
2023/06/22 09:23:59;;;;;;;6.53;5.60;;;;;;;;;;5094371;28;20480;-81
2023/06/22 09:26:25;;;;;;;6.93;6.13;;;;;;;;;;5084031;28;21035;-82
2023/06/22 09:28:52;;;;;;;4.83;4.40;;;;;;;;;;5086888;28;20829;-81
2023/06/22 09:31:25;;;;;;;5.10;4.60;;;;;;;;;;5085716;28;20532;-80
2023/06/22 09:33:52;;;;;;;7.40;4.70;;;;;;;;;;5077311;28;20446;-79
2023/06/22 09:36:19;;;;;;;6.60;5.60;;;;;;;;;;5088368;28;20477;-80
2023/06/22 09:38:46;;;;;;;6.93;5.87;;;;;;;;;;5071302;28;20466;-80
2023/06/22 09:41:12;;;;;;;6.20;5.57;;;;;;;;;;5083115;28;20572;-80
2023/06/22 09:43:39;;;;;;;8.33;5.30;;;;;;;;;;5081394;28;20949;-80
2023/06/22 09:46:06;;;;;;;5.23;4.73;;;;;;;;;;5084372;28;20962;-80
2023/06/22 09:48:34;;;;;;;7.30;5.80;;;;;;;;;;5087098;28;20466;-81
2023/06/22 09:51:01;;;;;;;7.90;7.10;;;;;;;;;;5094496;28;20971;-80
2023/06/22 09:53:28;;;;;;;4.90;4.40;;;;;;;;;;5087743;28;20948;-80
2023/06/22 09:55:54;;;;;;;7.67;6.50;;;;;;;;;;5085936;28;20476;-80
2023/06/22 09:58:21;;;;;;;9.53;7.33;;;;;;;;;;5087125;28;20485;-79
2023/06/22 10:00:50;;;;;;;8.30;4.97;;;;;;;;;;5086656;28;20478;-81
2023/06/22 10:03:16;;;;;;;7.70;5.70;;;;;;;;;;5088989;28;20450;-82
2023/06/22 10:05:44;;;;;;;8.47;6.10;;;;;;;;;;5074674;28;20458;-78
2023/06/22 10:08:11;;;;;;;5.50;5.00;;;;;;;;;;5089903;28;20462;-78
2023/06/22 10:10:37;;;;;;;7.37;6.33;;;;;;;;;;5095999;28;20477;-82
2023/06/22 10:13:08;;;;;;;9.43;6.60;;;;;;;;;;5089049;28;20445;-81
2023/06/22 10:15:34;;;;;;;9.13;6.43;;;;;;;;;;5092843;28;20480;-79
2023/06/22 10:18:00;;;;;;;6.00;5.40;;;;;;;;;;5092503;28;20856;-81
2023/06/22 10:20:28;;;;;;;6.87;4.83;;;;;;;;;;5089306;28;20442;-83
2023/06/22 10:22:55;;;;;;;6.87;6.17;;;;;;;;;;5094663;28;20439;-80
2023/06/22 10:25:22;;;;;;;10.80;8.00;;;;;;;;;;5084505;28;20454;-81
2023/06/22 10:27:48;;;;;;;6.50;5.73;;;;;;;;;;5089565;28;20544;-81
2023/06/22 10:30:15;;;;;;;11.40;7.70;;;;;;;;;;5083489;28;20482;-80
2023/06/22 10:32:42;;;;;;;6.40;5.80;;;;;;;;;;5085211;28;20478;-82
2023/06/22 10:35:10;;;;;;;8.77;7.97;;;;;;;;;;5091021;28;20448;-83
2023/06/22 10:37:37;;;;;;;7.87;6.53;;;;;;;;;;5093448;28;20523;-80
2023/06/22 10:40:08;;;;;;;7.20;6.60;;;;;;;;;;5080810;28;20436;-79
2023/06/22 10:42:35;;;;;;;8.80;6.80;;;;;;;;;;5086287;28;20562;-81
2023/06/22 10:45:01;;;;;;;10.30;7.30;;;;;;;;;;5088184;28;20450;-79
2023/06/22 10:47:28;;;;;;;6.60;5.97;;;;;;;;;;5078069;28;20489;-79
2023/06/22 10:49:55;;;;;;;9.70;6.50;;;;;;;;;;5082265;28;20490;-81
2023/06/22 10:52:21;;;;;;;7.20;6.57;;;;;;;;;;5081747;28;20470;-81
2023/06/22 10:54:47;;;;;;;7.30;6.60;;;;;;;;;;5076527;28;20454;-82
2023/06/22 10:57:15;;;;;;;8.37;6.47;;;;;;;;;;5067810;28;20475;-81
2023/06/22 10:59:41;;;;;;;9.00;7.63;;;;;;;;;;5088015;28;20450;-81
2023/06/22 11:02:08;;;;;;;9.40;8.40;;;;;;;;;;5075846;28;20466;-82
2023/06/22 11:04:34;;;;;;;6.90;6.30;;;;;;;;;;5078737;28;20441;-82
2023/06/22 11:07:03;;;;;;;7.63;6.93;;;;;;;;;;5085954;28;20467;-81
2023/06/22 11:09:30;;;;;;;8.90;7.87;;;;;;;;;;5076510;28;20465;-81
2023/06/22 11:11:58;;;;;;;8.33;7.53;;;;;;;;;;5080411;28;20475;-80
2023/06/22 11:14:26;;;;;;;8.10;7.40;;;;;;;;;;5083487;28;20455;-78
2023/06/22 11:16:52;;;;;;;9.53;8.73;;;;;;;;;;5078444;28;20546;-80
2023/06/22 11:19:19;;;;;;;10.10;9.10;;;;;;;;;;5083216;28;20446;-78
2023/06/22 11:21:45;;;;;;;7.50;6.80;;;;;;;;;;5088445;28;20473;-80
2023/06/22 11:24:12;;;;;;;7.90;6.57;;;;;;;;;;5085929;28;20463;-81
2023/06/22 11:26:39;;;;;;;10.73;9.63;;;;;;;;;;5080258;28;20469;-81
2023/06/22 11:29:05;;;;;;;11.20;9.40;;;;;;;;;;5081910;28;20466;-80
2023/06/22 11:31:33;;;;;;;8.77;7.10;;;;;;;;;;5084530;28;20506;-79
2023/06/22 11:34:00;;;;;;;10.50;9.33;;;;;;;;;;5089375;28;20462;-80
2023/06/22 11:36:26;;;;;;;9.97;9.00;;;;;;;;;;5086142;28;20474;-79
2023/06/22 11:38:53;;;;;;;9.03;8.13;;;;;;;;;;5078826;28;20470;-80
2023/06/22 11:41:20;;;;;;;10.33;9.37;;;;;;;;;;5087035;28;20996;-80
2023/06/22 11:43:47;;;;;;;10.30;9.30;;;;;;;;;;5084059;28;20439;-81
2023/06/22 11:46:13;;;;;;;9.40;8.40;;;;;;;;;;5081333;28;20471;-81
2023/06/22 11:48:41;;;;;;;10.20;9.17;;;;;;;;;;5067761;28;21052;-81
2023/06/22 11:51:08;;;;;;;10.47;9.40;;;;;;;;;;5085587;28;20473;-82
2023/06/22 11:53:34;;;;;;;10.17;8.60;;;;;;;;;;5084804;28;20465;-81
2023/06/22 11:56:02;;;;;;;11.80;9.60;;;;;;;;;;5085384;28;20471;-81
2023/06/22 11:58:28;;;;;;;10.47;9.40;;;;;;;;;;5086522;28;20462;-77
2023/06/22 12:00:55;;;;;;;11.13;10.13;;;;;;;;;;5086618;28;20842;-79
2023/06/22 12:03:22;;;;;;;10.10;9.13;;;;;;;;;;5080125;28;20477;-79
2023/06/22 12:05:50;;;;;;;10.17;9.17;;;;;;;;;;5077730;28;20489;-80
2023/06/22 12:08:16;;;;;;;11.43;10.33;;;;;;;;;;5089421;28;20462;-81
2023/06/22 12:10:43;;;;;;;11.07;9.27;;;;;;;;;;5081982;28;20488;-80
2023/06/22 12:13:09;;;;;;;9.23;8.33;;;;;;;;;;5094887;28;20932;-79
2023/06/22 12:15:35;;;;;;;10.90;9.13;;;;;;;;;;5080213;28;20443;-77
2023/06/22 12:18:02;;;;;;;9.70;8.80;;;;;;;;;;5078917;28;20480;-80
2023/06/22 12:20:28;;;;;;;11.07;9.60;;;;;;;;;;5088255;28;20442;-79
2023/06/22 12:22:58;;;;;;;9.60;8.70;;;;;;;;;;5084156;28;20446;-79
2023/06/22 12:25:24;;;;;;;10.23;9.33;;;;;;;;;;5084829;28;20478;-77
2023/06/22 12:27:50;;;;;;;11.23;8.53;;;;;;;;;;5056822;28;20471;-78
2023/06/22 12:30:17;;;;;;;9.80;9.00;;;;;;;;;;5034758;28;20459;-80
2023/06/22 12:32:43;;;;;;;9.50;8.30;;;;;;;;;;5064487;28;20471;-80
2023/06/22 12:35:13;;;;;;;8.27;7.57;;;;;;;;;;5060534;28;20447;-79
2023/06/22 12:37:39;;;;;;;9.93;8.47;;;;;;;;;;5061897;28;20467;-80
2023/06/22 12:40:09;;;;;;;8.60;7.80;;;;;;;;;;5064425;28;20448;-78
2023/06/22 12:42:35;;;;;;;8.90;7.03;;;;;;;;;;5065321;28;20482;-79
2023/06/22 12:45:01;;;;;;;7.77;7.13;;;;;;;;;;5067025;28;20963;-78
2023/06/22 12:47:28;;;;;;;8.40;7.60;;;;;;;;;;5057387;28;20993;-80
2023/06/22 12:49:54;;;;;;;12.20;9.50;;;;;;;;;;5069673;28;20444;-79
2023/06/22 12:52:20;;;;;;;9.33;8.07;;;;;;;;;;5066426;28;20472;-80
2023/06/22 12:54:47;;;;;;;9.90;8.73;;;;;;;;;;5066241;28;20459;-80
2023/06/22 12:57:14;;;;;;;12.37;8.17;;;;;;;;;;5061233;28;20482;-77
2023/06/22 12:59:41;;;;;;;8.20;7.40;;;;;;;;;;5066428;28;20449;-79
2023/06/22 13:02:09;;;;;;;10.87;8.00;;;;;;;;;;5062651;28;20467;-79
2023/06/22 13:04:35;;;;;;;7.57;6.87;;;;;;;;;;5064350;28;20469;-79
2023/06/22 13:07:01;;;;;;;9.27;8.30;;;;;;;;;;5074138;28;20463;-80
2023/06/22 13:09:28;;;;;;;8.40;7.60;;;;;;;;;;5069527;28;20454;-81
2023/06/22 13:11:54;;;;;;;7.63;6.93;;;;;;;;;;5066379;28;20479;-78
2023/06/22 13:14:22;;;;;;;8.50;7.80;;;;;;;;;;5070070;28;20472;-79
2023/06/22 13:16:48;;;;;;;9.23;8.07;;;;;;;;;;5070075;28;20471;-79
2023/06/22 13:19:15;;;;;;;9.00;8.10;;;;;;;;;;5068529;28;20474;-80
2023/06/22 13:21:41;;;;;;;7.90;7.10;;;;;;;;;;5074185;28;20474;-79
2023/06/22 13:24:08;;;;;;;9.90;7.97;;;;;;;;;;5064518;28;20501;-80
2023/06/22 13:26:34;;;;;;;8.17;7.37;;;;;;;;;;5060184;28;20468;-78
2023/06/22 13:29:00;;;;;;;7.37;6.60;;;;;;;;;;5063398;28;20986;-80
2023/06/22 13:31:28;;;;;;;8.20;7.10;;;;;;;;;;5065657;28;20478;-79
2023/06/22 13:33:55;;;;;;;8.30;7.60;;;;;;;;;;5064113;28;20454;-80
2023/06/22 13:36:23;;;;;;;8.03;7.43;;;;;;;;;;5054976;28;20464;-80
2023/06/22 13:38:49;;;;;;;8.73;7.80;;;;;;;;;;5061581;28;20467;-79
2023/06/22 13:41:15;;;;;;;8.13;7.33;;;;;;;;;;5050419;28;20471;-80
2023/06/22 13:43:42;;;;;;;7.90;7.20;;;;;;;;;;5060235;28;20448;-80
2023/06/22 13:46:08;;;;;;;9.00;8.03;;;;;;;;;;5062539;28;20467;-79
2023/06/22 13:48:36;;;;;;;11.93;7.73;;;;;;;;;;5066424;28;20474;-80
2023/06/22 13:51:02;;;;;;;7.93;7.20;;;;;;;;;;5070160;28;20479;-81
2023/06/22 13:53:29;;;;;;;8.87;8.07;;;;;;;;;;5072765;28;20447;-79
2023/06/22 13:55:55;;;;;;;9.23;8.17;;;;;;;;;;5067446;28;21006;-80
2023/06/22 13:58:21;;;;;;;8.10;7.30;;;;;;;;;;5064646;28;20847;-80
2023/06/22 14:00:49;;;;;;;8.90;8.00;;;;;;;;;;5066288;28;20466;-82
2023/06/22 14:03:16;;;;;;;8.40;7.60;;;;;;;;;;5066300;28;20463;-81
2023/06/22 14:05:44;;;;;;;8.73;7.83;;;;;;;;;;5064094;28;20458;-80
2023/06/22 14:08:10;;;;;;;9.40;8.10;;;;;;;;;;5063074;28;20463;-78
2023/06/22 14:10:37;;;;;;;9.77;8.80;;;;;;;;;;5057929;28;20456;-81
2023/06/22 14:13:05;;;;;;;8.00;7.10;;;;;;;;;;5067532;28;20478;-81
2023/06/22 14:15:31;;;;;;;8.90;8.10;;;;;;;;;;5067152;28;20451;-81
2023/06/22 14:17:58;;;;;;;8.43;7.63;;;;;;;;;;5075505;28;20510;-80
2023/06/22 14:20:24;;;;;;;9.53;8.10;;;;;;;;;;5060061;28;20826;-81
2023/06/22 14:22:52;;;;;;;8.73;7.70;;;;;;;;;;5060394;28;20893;-79
2023/06/22 14:25:18;;;;;;;8.67;7.87;;;;;;;;;;5055618;28;20468;-78
2023/06/22 14:27:45;;;;;;;8.30;7.50;;;;;;;;;;5062825;28;20480;-80